Time;durP1;ratioP1;P1;durP2;ratioP2;P2;SDS_P1;SDS_P2;PMS_P1;PMS_P2;Temp;Humidity;BMP_temperature;BMP_pressure;BME280_temperature;BME280_humidity;BME280_pressure;Samples;Min_cycle;Max_cycle;Signal;HPM_P1;HPM_P2
2022/09/29 00:00:50;;;;;;;3.00;1.80;;;;;;;4.99;100.00;98084.56;100730;1329;24298;-31
2022/09/29 00:03:16;;;;;;;5.90;2.60;;;;;;;5.05;100.00;98080.46;100808;1331;24490;-31
2022/09/29 00:05:46;;;;;;;3.60;2.10;;;;;;;5.12;100.00;98078.27;100839;1334;24443;-32
2022/09/29 00:08:12;;;;;;;5.30;2.10;;;;;;;5.14;100.00;98080.09;100806;1331;22914;-35
2022/09/29 00:10:39;;;;;;;5.60;3.10;;;;;;;5.18;100.00;98077.86;100718;1329;22868;-31
2022/09/29 00:13:05;;;;;;;10.00;1.70;;;;;;;5.18;100.00;98072.37;100856;1322;24222;-39
2022/09/29 00:15:30;;;;;;;5.80;2.80;;;;;;;5.17;100.00;98067.66;100913;1331;22869;-33
2022/09/29 00:17:57;;;;;;;6.60;2.60;;;;;;;5.18;100.00;98060.42;100748;1332;23109;-32
2022/09/29 00:20:23;;;;;;;4.50;2.10;;;;;;;5.18;100.00;98060.14;100727;1327;25618;-32
2022/09/29 00:22:50;;;;;;;19.60;3.10;;;;;;;5.15;100.00;98062.05;100683;1331;25761;-36
2022/09/29 00:25:17;;;;;;;2.90;1.90;;;;;;;5.09;100.00;98053.08;100748;1338;22731;-34
2022/09/29 00:27:43;;;;;;;5.00;1.90;;;;;;;5.08;100.00;98045.90;100843;1338;24279;-36
2022/09/29 00:30:10;;;;;;;5.10;2.10;;;;;;;5.05;100.00;98042.60;100926;1338;22907;-33
2022/09/29 00:32:35;;;;;;;4.60;1.90;;;;;;;5.03;100.00;98050.98;100827;1322;23311;-35
2022/09/29 00:35:01;;;;;;;3.00;2.60;;;;;;;5.00;100.00;98060.55;100735;1339;22751;-32
2022/09/29 00:37:27;;;;;;;3.10;2.20;;;;;;;4.95;100.00;98059.30;100826;1338;23109;-41
2022/09/29 00:39:53;;;;;;;9.70;3.50;;;;;;;4.94;100.00;98053.87;100784;1337;23208;-35
2022/09/29 00:42:18;;;;;;;2.80;1.70;;;;;;;4.92;100.00;98048.13;100845;1337;24505;-31
2022/09/29 00:44:52;;;;;;;1.90;1.40;;;;;;;4.93;100.00;98052.59;100757;1334;24356;-34
2022/09/29 00:47:17;;;;;;;1.50;1.40;;;;;;;4.91;100.00;98056.14;100746;1332;22514;-35
2022/09/29 00:49:46;;;;;;;10.30;2.10;;;;;;;4.87;100.00;98055.98;100699;1334;24370;-35
2022/09/29 00:52:15;;;;;;;6.00;3.20;;;;;;;4.87;100.00;98058.85;100758;1337;23103;-35
2022/09/29 00:54:43;;;;;;;3.40;2.30;;;;;;;4.84;100.00;98059.60;100816;1338;24361;-32
2022/09/29 00:57:09;;;;;;;2.90;2.00;;;;;;;4.83;100.00;98069.98;100819;1330;23258;-36
2022/09/29 00:59:39;;;;;;;3.70;1.70;;;;;;;4.82;100.00;98068.84;100680;1322;22506;-37
2022/09/29 01:02:05;;;;;;;2.70;2.10;;;;;;;4.86;100.00;98069.80;100833;1339;23924;-33
2022/09/29 01:04:30;;;;;;;2.90;1.90;;;;;;;4.87;100.00;98071.30;100883;1330;24336;-34
2022/09/29 01:06:57;;;;;;;3.20;2.40;;;;;;;4.90;100.00;98081.71;100849;1338;23116;-33
2022/09/29 01:09:25;;;;;;;1.40;1.30;;;;;;;4.94;100.00;98085.34;100778;1331;22880;-36
2022/09/29 01:11:51;;;;;;;2.40;2.00;;;;;;;5.00;100.00;98082.73;100906;1331;22514;-32
2022/09/29 01:14:18;;;;;;;2.00;1.30;;;;;;;4.98;100.00;98078.74;100744;1330;25652;-34
2022/09/29 01:16:44;;;;;;;3.40;2.20;;;;;;;5.00;100.00;98081.61;100756;1338;22877;-34
2022/09/29 01:19:15;;;;;;;2.90;2.10;;;;;;;5.04;100.00;98082.02;100831;1339;22571;-34
2022/09/29 01:22:01;;;;;;;3.40;2.20;;;;;;;5.11;100.00;98089.02;100817;1339;22510;-38
2022/09/29 01:24:32;;;;;;;2.60;1.90;;;;;;;5.20;100.00;98087.91;100861;1339;22518;-32
2022/09/29 01:27:05;;;;;;;4.30;2.10;;;;;;;5.28;100.00;98087.27;100716;1339;22730;-32
2022/09/29 01:29:36;;;;;;;2.50;1.30;;;;;;;5.35;100.00;98079.15;100742;1338;25231;-35
2022/09/29 01:32:07;;;;;;;3.90;2.50;;;;;;;5.41;100.00;98077.44;100827;1337;23097;-32
2022/09/29 01:34:36;;;;;;;4.40;1.50;;;;;;;5.45;100.00;98082.45;100903;1337;22745;-32
2022/09/29 01:37:09;;;;;;;3.70;1.90;;;;;;;5.47;100.00;98073.21;100860;1339;23093;-36
2022/09/29 01:39:41;;;;;;;2.60;1.30;;;;;;;5.52;100.00;98070.86;100827;1338;24376;-34
2022/09/29 01:42:09;;;;;;;3.50;2.80;;;;;;;5.55;100.00;98077.05;100841;1339;25229;-31
2022/09/29 01:44:38;;;;;;;3.70;2.60;;;;;;;5.57;100.00;98076.73;100810;1337;24436;-37
2022/09/29 01:47:06;;;;;;;2.30;1.90;;;;;;;5.60;100.00;98079.75;100816;1338;24497;-33
2022/09/29 01:49:33;;;;;;;3.20;2.50;;;;;;;5.61;100.00;98075.09;100776;1337;24357;-36
2022/09/29 01:52:04;;;;;;;5.10;3.60;;;;;;;5.65;100.00;98072.23;100804;1337;24439;-36
2022/09/29 01:54:36;;;;;;;4.10;1.70;;;;;;;5.66;100.00;98060.65;100753;1337;24488;-32
2022/09/29 01:57:07;;;;;;;1.30;1.00;;;;;;;5.69;100.00;98062.63;100710;1339;22527;-33
2022/09/29 01:59:41;;;;;;;3.80;2.70;;;;;;;5.66;100.00;98058.38;100881;1339;24289;-31
2022/09/29 02:02:08;;;;;;;;;;;;;;;5.58;100.00;98060.61;100925;1339;24331;-32
2022/09/29 02:04:38;;;;;;;5.20;2.10;;;;;;;5.47;100.00;98059.52;100726;1331;23327;-34
2022/09/29 02:07:07;;;;;;;4.40;2.60;;;;;;;5.40;100.00;98066.33;100875;1331;23229;-32
2022/09/29 02:09:38;;;;;;;2.20;1.90;;;;;;;5.39;100.00;98072.67;100941;1338;22745;-35
2022/09/29 02:12:04;;;;;;;2.90;2.00;;;;;;;5.35;100.00;98079.02;100758;1331;22747;-35
2022/09/29 02:14:32;;;;;;;5.80;2.70;;;;;;;5.34;100.00;98080.02;100769;1337;24330;-35
2022/09/29 02:17:04;;;;;;;5.00;2.50;;;;;;;5.31;100.00;98082.70;100875;1331;22577;-35
2022/09/29 02:19:33;;;;;;;7.20;2.60;;;;;;;5.32;100.00;98080.49;100805;1331;23035;-32
2022/09/29 02:21:58;;;;;;;4.20;2.70;;;;;;;5.29;100.00;98079.86;100708;1337;25630;-32
2022/09/29 02:24:24;;;;;;;5.10;2.20;;;;;;;5.26;100.00;98081.48;100895;1331;24465;-36
2022/09/29 02:26:50;;;;;;;17.00;2.80;;;;;;;5.23;100.00;98085.77;100798;1334;22618;-33
2022/09/29 02:29:16;;;;;;;4.80;2.40;;;;;;;5.17;100.00;98087.72;100755;1331;24340;-37
2022/09/29 02:31:42;;;;;;;4.70;1.80;;;;;;;5.11;100.00;98087.23;100778;1334;22741;-36
2022/09/29 02:34:08;;;;;;;4.60;2.30;;;;;;;5.08;100.00;98090.21;100713;1338;23226;-32
2022/09/29 02:36:41;;;;;;;3.70;2.20;;;;;;;5.04;100.00;98087.43;100826;1334;22754;-33
2022/09/29 02:39:11;;;;;;;2.30;1.90;;;;;;;4.99;100.00;98087.14;100813;1327;22766;-36
2022/09/29 02:42:01;;;;;;;2.30;2.00;;;;;;;4.95;100.00;98087.64;100881;1338;23109;-33
2022/09/29 02:44:34;;;;;;;6.10;2.60;;;;;;;4.90;100.00;98093.71;100742;1334;24341;-36
2022/09/29 02:47:07;;;;;;;3.20;2.50;;;;;;;4.85;100.00;98086.98;100821;1338;22498;-36
2022/09/29 02:49:38;;;;;;;1.00;1.00;;;;;;;4.83;100.00;98088.48;100837;1343;22503;-32
2022/09/29 02:52:10;;;;;;;2.30;1.50;;;;;;;4.81;100.00;98091.02;100799;1334;23245;-33
2022/09/29 02:54:41;;;;;;;3.30;2.40;;;;;;;4.78;100.00;98088.45;100837;1338;24465;-38
2022/09/29 02:57:12;;;;;;;2.70;2.30;;;;;;;4.77;100.00;98089.25;100834;1338;22886;-35
2022/09/29 02:59:44;;;;;;;5.50;2.70;;;;;;;4.77;100.00;98090.48;100882;1343;24760;-35
2022/09/29 03:02:10;;;;;;;2.80;2.00;;;;;;;4.74;100.00;98084.98;100755;1339;26559;-35
2022/09/29 03:04:36;;;;;;;3.70;2.00;;;;;;;4.74;100.00;98089.23;100793;1334;23219;-33
2022/09/29 03:07:02;;;;;;;4.10;2.30;;;;;;;4.72;100.00;98091.60;100746;1337;22889;-35
2022/09/29 03:09:27;;;;;;;3.60;2.50;;;;;;;4.70;100.00;98088.70;100849;1342;22887;-32
2022/09/29 03:11:53;;;;;;;4.80;3.40;;;;;;;4.68;100.00;98088.94;100861;1329;23087;-35
2022/09/29 03:14:19;;;;;;;5.20;3.20;;;;;;;4.66;100.00;98091.05;100844;1340;22511;-35
2022/09/29 03:16:44;;;;;;;5.70;2.50;;;;;;;4.65;100.00;98093.98;100744;1341;22718;-32
2022/09/29 03:19:10;;;;;;;2.10;1.90;;;;;;;4.64;100.00;98099.08;100720;1322;23174;-32
2022/09/29 03:21:36;;;;;;;2.50;2.10;;;;;;;4.65;100.00;98099.75;100826;1326;23036;-36
2022/09/29 03:24:02;;;;;;;2.40;1.80;;;;;;;4.64;100.00;98101.98;100540;1342;22736;-32
2022/09/29 03:26:29;;;;;;;3.00;1.80;;;;;;;4.62;100.00;98104.84;100783;1338;22884;-35
2022/09/29 03:28:54;;;;;;;2.40;2.10;;;;;;;4.65;100.00;98110.31;100777;1334;23250;-35
2022/09/29 03:31:20;;;;;;;4.50;2.70;;;;;;;4.69;100.00;98118.04;100908;1342;22869;-32
2022/09/29 03:33:45;;;;;;;7.20;4.70;;;;;;;4.73;100.00;98124.12;100752;1336;22709;-33
2022/09/29 03:36:11;;;;;;;2.10;1.70;;;;;;;4.74;100.00;98129.82;100734;1333;24357;-31
2022/09/29 03:38:37;;;;;;;3.30;2.40;;;;;;;4.76;100.00;98126.80;100820;1336;22624;-34
2022/09/29 03:41:04;;;;;;;3.80;2.90;;;;;;;4.76;100.00;98127.67;100826;1331;22821;-32
2022/09/29 03:43:29;;;;;;;3.60;2.90;;;;;;;4.73;100.00;98125.69;100761;1337;23316;-31
2022/09/29 03:45:55;;;;;;;4.80;4.20;;;;;;;4.70;100.00;98131.05;100808;1338;23252;-33
2022/09/29 03:48:21;;;;;;;5.50;2.50;;;;;;;4.70;100.00;98130.35;100829;1336;23109;-32
2022/09/29 03:50:47;;;;;;;2.80;2.30;;;;;;;4.67;100.00;98131.59;100717;1337;22751;-35
2022/09/29 03:53:13;;;;;;;4.00;2.60;;;;;;;4.64;100.00;98131.03;100739;1333;22736;-32
2022/09/29 03:55:38;;;;;;;2.30;1.80;;;;;;;4.58;100.00;98135.19;100848;1334;22502;-36
2022/09/29 03:58:04;;;;;;;3.60;1.90;;;;;;;4.54;100.00;98144.55;100765;1334;24375;-36
2022/09/29 04:00:29;;;;;;;4.40;1.70;;;;;;;4.53;100.00;98150.85;100903;1339;22748;-33
2022/09/29 04:02:55;;;;;;;2.60;2.20;;;;;;;4.50;100.00;98147.33;100967;1339;22510;-37
2022/09/29 04:05:21;;;;;;;3.40;2.50;;;;;;;4.46;100.00;98140.91;100856;1337;22868;-32
2022/09/29 04:07:46;;;;;;;4.20;2.40;;;;;;;4.44;100.00;98144.49;100835;1335;23128;-33
2022/09/29 04:10:12;;;;;;;1.70;1.40;;;;;;;4.42;100.00;98142.06;100732;1342;23203;-36
2022/09/29 04:12:38;;;;;;;3.70;2.60;;;;;;;4.41;100.00;98147.69;100926;1334;23099;-41
2022/09/29 04:15:04;;;;;;;4.60;3.50;;;;;;;4.41;100.00;98149.25;100897;1342;24583;-35
2022/09/29 04:17:30;;;;;;;3.00;2.70;;;;;;;4.36;100.00;98147.80;100746;1337;22751;-34
2022/09/29 04:19:56;;;;;;;5.70;4.20;;;;;;;4.33;100.00;98154.39;100858;1335;22766;-35
2022/09/29 04:22:22;;;;;;;4.50;3.90;;;;;;;4.30;100.00;98153.45;100795;1334;24309;-32
2022/09/29 04:24:48;;;;;;;5.40;3.20;;;;;;;4.28;100.00;98152.04;100767;1342;22748;-32
2022/09/29 04:27:14;;;;;;;6.10;3.80;;;;;;;4.27;100.00;98152.77;100689;1338;22744;-35
2022/09/29 04:29:40;;;;;;;6.20;4.60;;;;;;;4.25;100.00;98152.94;100730;1338;23026;-36
2022/09/29 04:32:05;;;;;;;6.70;4.60;;;;;;;4.22;100.00;98154.14;100760;1340;24433;-36
2022/09/29 04:34:32;;;;;;;4.90;2.10;;;;;;;4.22;100.00;98157.77;100822;1339;24427;-33
2022/09/29 04:36:57;;;;;;;5.40;3.40;;;;;;;4.25;100.00;98164.06;100890;1338;23297;-33
2022/09/29 04:39:23;;;;;;;3.40;2.80;;;;;;;4.22;100.00;98167.80;100825;1334;24289;-35
2022/09/29 04:41:48;;;;;;;6.50;2.60;;;;;;;4.20;100.00;98170.24;100739;1331;22744;-35
2022/09/29 04:44:14;;;;;;;2.80;2.20;;;;;;;4.20;100.00;98175.25;100735;1338;25621;-32
2022/09/29 04:46:39;;;;;;;7.00;5.20;;;;;;;4.20;100.00;98175.73;100819;1328;23058;-35
2022/09/29 04:49:05;;;;;;;9.60;4.40;;;;;;;4.18;100.00;98177.73;100759;1339;23100;-32
2022/09/29 04:51:31;;;;;;;5.70;4.50;;;;;;;4.17;100.00;98177.52;100711;1338;24378;-34
2022/09/29 04:53:57;;;;;;;2.10;1.10;;;;;;;4.15;100.00;98176.01;100935;1334;22864;-30
2022/09/29 04:56:23;;;;;;;4.60;3.40;;;;;;;4.15;100.00;98178.02;100797;1334;23359;-33
2022/09/29 04:58:49;;;;;;;9.50;7.00;;;;;;;4.14;100.00;98178.98;100947;1337;22872;-34
2022/09/29 05:01:15;;;;;;;8.60;4.60;;;;;;;4.13;100.00;98180.35;100773;1342;23069;-32
2022/09/29 05:03:41;;;;;;;7.10;5.40;;;;;;;4.15;100.00;98184.92;100871;1342;22646;-36
2022/09/29 05:06:08;;;;;;;4.20;2.70;;;;;;;4.17;100.00;98186.66;100708;1341;22513;-35
2022/09/29 05:08:33;;;;;;;8.30;6.10;;;;;;;4.18;100.00;98182.92;100880;1334;24884;-32
2022/09/29 05:11:04;;;;;;;6.20;4.50;;;;;;;4.19;100.00;98184.69;100787;1342;23218;-33
2022/09/29 05:13:29;;;;;;;9.70;5.20;;;;;;;4.23;100.00;98181.98;100809;1342;25398;-32
2022/09/29 05:15:56;;;;;;;10.90;6.10;;;;;;;4.28;100.00;98185.77;100677;1338;25227;-35
2022/09/29 05:18:22;;;;;;;9.70;5.50;;;;;;;4.30;100.00;98185.64;100924;1321;22497;-31
2022/09/29 05:20:48;;;;;;;8.90;5.80;;;;;;;4.31;100.00;98185.78;100763;1334;25441;-35
2022/09/29 05:23:14;;;;;;;5.60;4.60;;;;;;;4.37;100.00;98189.53;100744;1334;23542;-33
2022/09/29 05:25:40;;;;;;;8.50;4.60;;;;;;;4.41;100.00;98191.98;100732;1328;22813;-36
2022/09/29 05:28:07;;;;;;;5.20;3.30;;;;;;;4.45;100.00;98190.14;100799;1325;22577;-36
2022/09/29 05:30:33;;;;;;;10.00;5.50;;;;;;;4.51;100.00;98195.58;100886;1331;22881;-36
2022/09/29 05:32:58;;;;;;;10.00;6.50;;;;;;;4.58;100.00;98201.30;100746;1334;22754;-33
2022/09/29 05:35:24;;;;;;;13.80;7.40;;;;;;;4.64;100.00;98203.54;100799;1340;23101;-35
2022/09/29 05:37:50;;;;;;;6.50;4.80;;;;;;;4.70;100.00;98205.02;100780;1329;22709;-33
2022/09/29 05:40:16;;;;;;;6.50;5.30;;;;;;;4.72;100.00;98202.06;100811;1342;23221;-36
2022/09/29 05:42:41;;;;;;;8.70;6.70;;;;;;;4.77;100.00;98203.02;100848;1331;24292;-36
2022/09/29 05:45:09;;;;;;;9.40;7.90;;;;;;;4.84;100.00;98202.05;100770;1336;22506;-34
2022/09/29 05:47:35;;;;;;;18.00;5.80;;;;;;;4.90;100.00;98205.56;100787;1341;23118;-35
2022/09/29 05:50:02;;;;;;;10.40;7.50;;;;;;;4.97;100.00;98212.70;100805;1334;22604;-33
2022/09/29 05:52:28;;;;;;;10.00;6.80;;;;;;;5.02;100.00;98218.98;100750;1334;23239;-36
2022/09/29 05:54:53;;;;;;;6.70;6.00;;;;;;;5.09;100.00;98223.55;100882;1338;24370;-31
2022/09/29 05:57:19;;;;;;;6.70;3.70;;;;;;;5.17;100.00;98226.33;100691;1334;22843;-32
2022/09/29 05:59:44;;;;;;;7.70;4.90;;;;;;;5.24;100.00;98226.84;100874;1339;24962;-32
2022/09/29 06:02:10;;;;;;;7.70;4.80;;;;;;;5.34;100.00;98229.88;100772;1338;24465;-35
2022/09/29 06:04:36;;;;;;;4.60;3.60;;;;;;;5.44;100.00;98228.29;100715;1339;22496;-35
2022/09/29 06:07:01;;;;;;;16.30;5.50;;;;;;;5.51;100.00;98232.98;100763;1331;22917;-33
2022/09/29 06:09:27;;;;;;;4.30;3.50;;;;;;;5.61;100.00;98234.84;100729;1339;23289;-33
2022/09/29 06:11:52;;;;;;;5.00;4.20;;;;;;;5.71;100.00;98234.02;100758;1337;23031;-33
2022/09/29 06:14:18;;;;;;;5.30;4.50;;;;;;;5.81;100.00;98233.27;100796;1339;24555;-35
2022/09/29 06:16:44;;;;;;;21.50;11.90;;;;;;;5.94;100.00;98236.86;100742;1322;24330;-35
2022/09/29 06:19:10;;;;;;;12.70;10.80;;;;;;;6.02;100.00;98236.19;100735;1334;24337;-37
2022/09/29 06:21:36;;;;;;;7.30;6.10;;;;;;;6.10;100.00;98234.18;100715;1339;22782;-35
2022/09/29 06:24:02;;;;;;;4.80;4.10;;;;;;;6.18;100.00;98237.18;100909;1335;24379;-35
2022/09/29 06:26:28;;;;;;;6.00;4.30;;;;;;;6.25;100.00;98237.75;100878;1338;23010;-33
2022/09/29 06:28:54;;;;;;;6.80;5.60;;;;;;;6.31;100.00;98239.95;100766;1336;22997;-34
2022/09/29 06:31:22;;;;;;;10.50;5.00;;;;;;;6.43;100.00;98241.36;100770;1322;24297;-33
2022/09/29 06:33:47;;;;;;;5.60;4.20;;;;;;;6.55;100.00;98243.88;100946;1332;22891;-32
2022/09/29 06:38:46;;;;;;;3.00;2.80;;;;;;;6.76;100.00;98247.98;100813;1339;22659;-33
2022/09/29 06:41:13;;;;;;;3.60;3.00;;;;;;;6.87;100.00;98250.98;100768;1339;22820;-32
2022/09/29 06:43:38;;;;;;;7.50;4.40;;;;;;;6.99;100.00;98253.88;100797;1339;24492;-36
2022/09/29 06:46:04;;;;;;;5.30;4.80;;;;;;;7.14;100.00;98257.13;100800;1337;24348;-35
2022/09/29 06:48:30;;;;;;;4.20;2.70;;;;;;;7.24;100.00;98255.05;100666;1334;22857;-35
2022/09/29 06:50:56;;;;;;;4.40;3.50;;;;;;;7.38;100.00;98256.73;100772;1339;22875;-36
2022/09/29 06:53:22;;;;;;;6.90;3.40;;;;;;;7.45;100.00;98257.24;100836;1339;22618;-36
2022/09/29 06:55:52;;;;;;;5.50;4.60;;;;;;;7.53;100.00;98260.21;100806;1332;22757;-34
2022/09/29 06:58:18;;;;;;;7.00;5.60;;;;;;;7.62;100.00;98254.63;100798;1337;22665;-32
2022/09/29 07:00:44;;;;;;;5.80;3.90;;;;;;;7.66;100.00;98249.10;100847;1339;25869;-33
2022/09/29 07:03:09;;;;;;;6.20;4.60;;;;;;;7.75;100.00;98254.94;100762;1339;23099;-33
2022/09/29 07:05:35;;;;;;;5.40;2.50;;;;;;;7.84;100.00;98256.62;100733;1339;25017;-35
2022/09/29 07:08:02;;;;;;;4.80;3.60;;;;;;;7.92;100.00;98255.67;100868;1339;23244;-35
2022/09/29 07:10:28;;;;;;;4.10;3.70;;;;;;;8.01;100.00;98256.27;100795;1339;22908;-36
2022/09/29 07:12:54;;;;;;;4.90;3.60;;;;;;;8.09;100.00;98255.86;100741;1323;22897;-36
2022/09/29 07:15:20;;;;;;;5.00;3.50;;;;;;;8.13;100.00;98247.29;100873;1339;23104;-33
2022/09/29 07:17:50;;;;;;;6.90;4.70;;;;;;;8.18;100.00;98238.05;100432;1322;459812;-34
2022/09/29 07:20:15;;;;;;;3.60;2.70;;;;;;;8.25;100.00;98240.21;100767;1340;23236;-32
2022/09/29 07:22:45;;;;;;;4.90;3.40;;;;;;;8.24;100.00;98233.39;100841;1321;24358;-36
2022/09/29 07:25:11;;;;;;;3.70;2.60;;;;;;;8.25;100.00;98230.55;100836;1331;24368;-35
2022/09/29 07:27:37;;;;;;;18.00;4.70;;;;;;;8.31;100.00;98236.55;100741;1337;22758;-35
2022/09/29 07:30:03;;;;;;;9.50;5.90;;;;;;;8.38;100.00;98236.26;100834;1339;23014;-32
2022/09/29 07:32:31;;;;;;;11.30;5.40;;;;;;;8.41;100.00;98222.45;100826;1331;22757;-36
2022/09/29 07:34:58;;;;;;;10.10;5.20;;;;;;;8.55;100.00;98217.30;100872;1332;24289;-32
2022/09/29 07:37:25;;;;;;;3.90;1.30;;;;;;;8.81;100.00;98224.42;100835;1339;24236;-33
2022/09/29 07:39:52;;;;;;;7.00;5.10;;;;;;;9.01;100.00;98215.91;100811;1339;23119;-35
2022/09/29 07:42:20;;;;;;;4.20;3.40;;;;;;;9.23;100.00;98203.44;100964;1331;22826;-37
2022/09/29 07:44:46;;;;;;;4.60;3.80;;;;;;;9.32;100.00;98188.46;100772;1339;22585;-33
2022/09/29 07:47:12;;;;;;;3.40;2.90;;;;;;;9.62;100.00;98177.88;100799;1328;24215;-34
2022/09/29 07:49:39;;;;;;;3.40;3.10;;;;;;;9.91;100.00;98196.43;100729;1336;22874;-33
2022/09/29 07:52:05;;;;;;;2.40;1.70;;;;;;;9.93;100.00;98216.48;100737;1339;23120;-34
2022/09/29 07:54:30;;;;;;;3.20;2.90;;;;;;;10.02;100.00;98216.74;100836;1338;23221;-37
2022/09/29 07:56:56;;;;;;;3.70;2.60;;;;;;;10.06;100.00;98225.02;100831;1331;23098;-34
2022/09/29 07:59:22;;;;;;;4.90;2.20;;;;;;;9.98;100.00;98226.02;100766;1339;24383;-33
2022/09/29 08:01:48;;;;;;;4.90;3.60;;;;;;;9.94;100.00;98223.92;100972;1332;22875;-37
2022/09/29 08:04:13;;;;;;;5.60;3.10;;;;;;;9.92;100.00;98220.80;100884;1337;23083;-39
2022/09/29 08:06:40;;;;;;;3.40;2.60;;;;;;;9.97;100.00;98212.13;100864;1322;22757;-34
2022/09/29 08:09:07;;;;;;;3.40;3.10;;;;;;;10.26;100.00;98193.73;100744;1339;22738;-33
2022/09/29 08:11:35;;;;;;;4.50;2.50;;;;;;;10.74;100.00;98197.44;100784;1339;23210;-36
2022/09/29 08:14:01;;;;;;;2.90;2.20;;;;;;;11.15;100.00;98201.48;100781;1331;22501;-37
2022/09/29 08:16:28;;;;;;;2.90;2.30;;;;;;;11.64;100.00;98206.34;100762;1337;22852;-37
2022/09/29 08:18:53;;;;;;;2.20;1.60;;;;;;;11.90;100.00;98192.22;100791;1324;22882;-36
2022/09/29 08:21:19;;;;;;;3.50;2.30;;;;;;;12.00;100.00;98179.17;100862;1331;24369;-34
2022/09/29 08:23:45;;;;;;;2.10;1.80;;;;;;;12.23;100.00;98181.38;100756;1322;24289;-37
2022/09/29 08:26:13;;;;;;;2.80;1.80;;;;;;;12.65;100.00;98189.23;100844;1337;22567;-35
2022/09/29 08:28:39;;;;;;;1.50;1.30;;;;;;;12.83;100.00;98172.44;100909;1339;22757;-38
2022/09/29 08:31:07;;;;;;;3.80;2.00;;;;;;;13.08;100.00;98176.83;100821;1339;22503;-35
2022/09/29 08:33:33;;;;;;;3.30;2.00;;;;;;;13.19;99.59;98179.91;100798;1329;22732;-36
2022/09/29 08:36:00;;;;;;;1.70;1.30;;;;;;;13.33;99.86;98177.77;100782;1337;22708;-35
2022/09/29 08:38:26;;;;;;;1.60;1.10;;;;;;;13.24;93.91;98173.73;100729;1338;23149;-33
2022/09/29 08:40:53;;;;;;;0.90;0.80;;;;;;;13.04;97.54;98176.92;100844;1338;24447;-34
2022/09/29 08:43:22;;;;;;;1.40;1.20;;;;;;;12.84;86.57;98178.70;100823;1339;22528;-35
2022/09/29 08:45:53;;;;;;;3.80;1.40;;;;;;;13.15;90.92;98178.85;100857;1324;22755;-37
2022/09/29 08:48:21;;;;;;;3.20;2.20;;;;;;;13.59;92.44;98179.65;100797;1331;22968;-35
2022/09/29 08:50:51;;;;;;;2.10;1.30;;;;;;;13.68;87.48;98181.31;100834;1331;22899;-36
2022/09/29 08:53:18;;;;;;;1.10;1.00;;;;;;;13.76;85.26;98182.39;100800;1329;23590;-37
2022/09/29 08:55:49;;;;;;;2.00;1.00;;;;;;;13.87;88.11;98187.90;100775;1338;22748;-35
2022/09/29 08:58:16;;;;;;;1.00;1.00;;;;;;;14.21;90.61;98184.55;100827;1338;23201;-35
2022/09/29 09:00:44;;;;;;;3.00;1.40;;;;;;;14.51;85.74;98186.67;100942;1339;22741;-35
2022/09/29 09:03:16;;;;;;;1.50;1.10;;;;;;;14.54;84.32;98185.10;100799;1322;23084;-35
2022/09/29 09:05:49;;;;;;;2.10;0.90;;;;;;;14.86;82.12;98183.41;100740;1339;22508;-37
2022/09/29 09:08:17;;;;;;;3.40;1.30;;;;;;;15.27;86.12;98185.17;100701;1339;23853;-35
2022/09/29 09:10:46;;;;;;;1.00;0.60;;;;;;;15.60;82.64;98184.42;100930;1331;22523;-35
2022/09/29 09:13:13;;;;;;;1.70;1.50;;;;;;;15.79;81.06;98181.06;100834;1331;25376;-35
2022/09/29 09:15:48;;;;;;;1.30;0.90;;;;;;;15.88;76.14;98181.17;100702;1332;22511;-37
2022/09/29 09:18:21;;;;;;;1.90;1.20;;;;;;;15.72;76.62;98184.98;100984;1327;23879;-35
2022/09/29 09:20:54;;;;;;;1.70;1.00;;;;;;;15.89;76.92;98181.84;100861;1338;25328;-37
2022/09/29 09:23:23;;;;;;;1.30;0.90;;;;;;;16.23;77.57;98184.27;100729;1321;24558;-33
2022/09/29 09:25:53;;;;;;;2.60;1.20;;;;;;;16.48;76.10;98183.08;100803;1331;24393;-34
2022/09/29 09:28:26;;;;;;;3.20;1.30;;;;;;;16.68;72.31;98180.14;100750;1331;23116;-37
2022/09/29 09:30:56;;;;;;;1.70;1.20;;;;;;;16.82;66.44;98180.09;100876;1339;23945;-33
2022/09/29 09:33:28;;;;;;;1.40;1.20;;;;;;;16.39;65.79;98184.45;100711;1338;25450;-34
2022/09/29 09:36:01;;;;;;;3.70;1.20;;;;;;;16.70;69.83;98183.66;100883;1339;22504;-35
2022/09/29 09:38:33;;;;;;;2.10;0.60;;;;;;;17.14;66.05;98188.85;100903;1339;22874;-36
2022/09/29 09:40:59;;;;;;;2.10;1.40;;;;;;;17.25;64.55;98188.59;100710;1335;22887;-36
2022/09/29 09:43:24;;;;;;;1.20;1.10;;;;;;;17.02;60.83;98190.29;100775;1338;24449;-34
2022/09/29 09:45:54;;;;;;;1.90;1.10;;;;;;;17.12;63.39;98195.36;100769;1337;22868;-38
2022/09/29 09:48:26;;;;;;;1.30;0.90;;;;;;;16.97;63.45;98201.45;100812;1337;22890;-37
2022/09/29 09:50:52;;;;;;;1.90;0.80;;;;;;;16.26;57.24;98203.66;100934;1331;25233;-37
2022/09/29 09:53:24;;;;;;;0.90;0.80;;;;;;;16.41;62.65;98200.83;100706;1338;22787;-37
2022/09/29 09:55:57;;;;;;;1.30;1.00;;;;;;;16.24;59.69;98205.61;100730;1331;24483;-37
2022/09/29 09:58:27;;;;;;;2.40;1.10;;;;;;;15.98;62.33;98204.70;100831;1339;22508;-35
2022/09/29 10:00:56;;;;;;;1.10;0.80;;;;;;;16.46;59.73;98211.20;100812;1332;22766;-34
2022/09/29 10:03:22;;;;;;;2.50;0.60;;;;;;;16.29;58.02;98210.35;100827;1339;22573;-37
2022/09/29 10:05:48;;;;;;;2.10;0.90;;;;;;;16.32;58.64;98212.44;100704;1331;24289;-34
2022/09/29 10:08:22;;;;;;;5.90;0.90;;;;;;;15.91;57.75;98207.94;100837;1331;22718;-35
2022/09/29 10:10:48;;;;;;;2.40;1.00;;;;;;;15.18;59.85;98211.58;100818;1339;22526;-40
2022/09/29 10:13:14;;;;;;;1.60;1.30;;;;;;;14.96;62.84;98211.42;100851;1328;22761;-35
2022/09/29 10:15:44;;;;;;;1.80;1.00;;;;;;;15.21;63.07;98207.89;100959;1331;22497;-34
2022/09/29 10:18:12;;;;;;;1.00;0.60;;;;;;;15.07;61.64;98205.16;100908;1338;23229;-35
2022/09/29 10:20:40;;;;;;;0.90;0.70;;;;;;;14.73;61.74;98205.27;100743;1339;23034;-34
2022/09/29 10:23:13;;;;;;;1.20;0.80;;;;;;;14.75;62.09;98204.70;100690;1329;22772;-34
2022/09/29 10:25:39;;;;;;;1.00;0.70;;;;;;;15.25;60.90;98203.27;100765;1339;22515;-37
2022/09/29 10:28:04;;;;;;;4.10;0.90;;;;;;;15.47;60.06;98206.98;100839;1337;22513;-37
2022/09/29 10:30:33;;;;;;;2.10;0.60;;;;;;;15.46;58.96;98207.52;100843;1335;23100;-34
2022/09/29 10:33:01;;;;;;;0.80;0.50;;;;;;;15.61;58.30;98210.95;100745;1338;22833;-37
2022/09/29 10:35:32;;;;;;;1.30;0.60;;;;;;;15.03;59.35;98214.84;100809;1331;22506;-34
2022/09/29 10:38:01;;;;;;;0.90;0.70;;;;;;;14.98;60.29;98210.52;100695;1338;22867;-36
2022/09/29 10:40:26;;;;;;;2.90;1.30;;;;;;;14.87;59.95;98212.27;100856;1331;22744;-34
2022/09/29 10:42:52;;;;;;;0.90;0.70;;;;;;;14.64;61.13;98212.45;100846;1339;22754;-33
2022/09/29 10:45:20;;;;;;;1.40;0.80;;;;;;;14.34;59.16;98222.91;100814;1339;22741;-36
2022/09/29 10:47:48;;;;;;;1.00;0.70;;;;;;;14.34;61.44;98224.75;100778;1332;22513;-38
2022/09/29 10:50:19;;;;;;;2.30;0.80;;;;;;;14.46;60.27;98225.02;100976;1338;25283;-35
2022/09/29 10:52:49;;;;;;;1.10;0.70;;;;;;;14.22;62.45;98223.81;100797;1338;22738;-34
2022/09/29 10:55:18;;;;;;;1.20;0.90;;;;;;;14.26;62.95;98226.90;100835;1339;23078;-36
2022/09/29 10:57:44;;;;;;;0.60;0.50;;;;;;;14.27;61.95;98229.84;100848;1332;24649;-35
2022/09/29 11:00:17;;;;;;;0.40;0.40;;;;;;;14.05;60.38;98235.84;100909;1337;22887;-38
2022/09/29 11:02:42;;;;;;;2.40;1.30;;;;;;;13.90;59.82;98234.98;100815;1339;23881;-36
2022/09/29 11:05:20;;;;;;;0.40;0.10;;;;;;;14.34;62.49;98238.45;100876;1339;24300;-36
2022/09/29 11:07:46;;;;;;;1.70;0.80;;;;;;;14.76;59.82;98232.02;100812;1338;23029;-34
2022/09/29 11:10:19;;;;;;;0.80;0.60;;;;;;;15.10;56.90;98236.16;100758;1332;23309;-37
2022/09/29 11:12:47;;;;;;;0.70;0.40;;;;;;;14.67;58.48;98234.01;100762;1339;24361;-33
2022/09/29 11:15:23;;;;;;;1.10;0.70;;;;;;;14.64;59.66;98237.70;100860;1331;24232;-33
2022/09/29 11:17:49;;;;;;;1.00;0.70;;;;;;;14.69;60.89;98238.38;100879;1322;26565;-37
2022/09/29 11:20:17;;;;;;;1.60;0.60;;;;;;;15.32;63.26;98237.54;100782;1332;22757;-35
2022/09/29 11:22:49;;;;;;;0.60;0.40;;;;;;;16.17;58.32;98234.40;100914;1331;22495;-36
2022/09/29 11:25:15;;;;;;;2.00;0.80;;;;;;;16.33;58.61;98231.04;100803;1338;22501;-35
2022/09/29 11:27:48;;;;;;;1.30;0.80;;;;;;;16.57;60.94;98224.38;100833;1339;25363;-38